Condeuba, Brazil
Current Conditions -  °F | °C
As of 6:00 PM on Wednesday 22 Oct 2014 (Local Time) from SBQV Reporting Station
Broken Clouds Broken Clouds  
Wind Chill: 66°   Ceiling: 700
Heat Index: 66°   Visibility: 6mi
Dew Point: 66°   Wind: 14mph
Humidity: 100%   Direction: 120°ESE
Pressure: 30.15"   Gusts: NA
Location:  14.9°S, 41.97°W
Report Text: SBQV 222100Z 12012KT 9999 SCT006 BKN007 19/19 Q1021
Loading
Personal Weather Stations






























Interactive Weather Map
Tropical Storm Tracking
New forecast layout! Learn more

10-Day Weather Forecast

Advertisements
Track Severe Weather on mobile